Time;durP1;ratioP1;P1;durP2;ratioP2;P2;SDS_P1;SDS_P2;PMS_P1;PMS_P2;Temp;Humidity;BMP_temperature;BMP_pressure;BME280_temperature;BME280_humidity;BME280_pressure;Samples;Min_cycle;Max_cycle;Signal;HPM_P1;HPM_P2
2022/01/26 00:00:42;;;;;;;79.70;39.58;;;2.10;99.90;;;;;;5025490;28;20538;-74
2022/01/26 00:06:02;;;;;;;73.80;37.33;;;2.10;99.90;;;;;;5023822;28;20200;-74
2022/01/26 00:08:29;;;;;;;77.45;41.25;;;2.10;99.90;;;;;;5024948;28;20224;-74
2022/01/26 00:10:57;;;;;;;70.50;37.95;;;2.10;99.90;;;;;;5022968;28;20198;-74
2022/01/26 00:13:24;;;;;;;75.88;39.28;;;2.20;99.90;;;;;;5025108;28;20293;-74
2022/01/26 00:15:52;;;;;;;70.32;36.45;;;2.20;99.90;;;;;;5023097;28;20257;-74
2022/01/26 00:18:21;;;;;;;68.97;38.38;;;2.20;99.90;;;;;;5025608;28;20697;-74
2022/01/26 00:20:54;;;;;;;64.55;36.78;;;2.20;99.90;;;;;;5027916;28;20194;-74
2022/01/26 00:23:47;;;;;;;65.47;36.95;;;2.20;99.90;;;;;;5023647;28;20194;-74
2022/01/26 00:26:25;;;;;;;65.32;38.15;;;2.30;99.90;;;;;;5013103;28;20198;-74
2022/01/26 00:29:09;;;;;;;66.00;37.55;;;2.30;99.90;;;;;;5013988;28;20218;-74
2022/01/26 00:40:03;;;;;;;68.32;38.72;;;2.40;99.90;;;;;;5025467;28;20199;-74
2022/01/26 00:42:36;;;;;;;68.55;38.28;;;2.40;99.90;;;;;;5027782;28;20309;-73
2022/01/26 00:45:03;;;;;;;68.30;39.45;;;2.40;99.90;;;;;;5023679;28;20198;-75
2022/01/26 00:47:30;;;;;;;63.50;38.13;;;2.40;99.90;;;;;;5025040;28;20225;-75
2022/01/26 00:50:01;;;;;;;68.05;36.80;;;2.40;99.90;;;;;;5022108;28;20203;-74
2022/01/26 00:52:38;;;;;;;60.75;35.97;;;2.30;99.90;;;;;;5020710;28;20208;-74
2022/01/26 00:55:06;;;;;;;66.95;37.72;;;2.30;99.90;;;;;;5023645;28;20712;-74
2022/01/26 00:57:34;;;;;;;77.20;36.83;;;2.30;99.90;;;;;;5028040;28;20321;-73
2022/01/26 01:00:01;;;;;;;75.40;37.42;;;2.30;99.90;;;;;;5029683;28;20201;-74
2022/01/26 01:02:30;;;;;;;61.85;34.72;;;2.30;99.90;;;;;;5016677;28;20230;-74
2022/01/26 01:05:00;;;;;;;71.35;36.75;;;2.20;99.90;;;;;;5023192;28;20605;-74
2022/01/26 01:07:32;;;;;;;60.80;32.38;;;2.10;99.90;;;;;;5020892;28;20217;-74
2022/01/26 01:09:59;;;;;;;61.47;33.67;;;2.10;99.90;;;;;;5027076;28;20198;-73
2022/01/26 01:12:26;;;;;;;56.15;33.63;;;2.00;99.90;;;;;;5026744;28;20198;-74
2022/01/26 01:14:55;;;;;;;62.28;37.10;;;2.00;99.90;;;;;;5030522;28;20205;-74
2022/01/26 01:17:25;;;;;;;107.57;36.53;;;2.00;99.90;;;;;;5024555;28;20232;-74
2022/01/26 01:20:10;;;;;;;57.80;33.63;;;1.90;99.90;;;;;;5021624;28;20198;-74
2022/01/26 01:22:54;;;;;;;58.72;33.40;;;1.80;99.90;;;;;;5020569;28;20234;-73
2022/01/26 01:30:57;;;;;;;59.60;35.17;;;1.60;99.90;;;;;;5022596;28;20206;-74
2022/01/26 01:33:31;;;;;;;57.85;32.58;;;1.60;99.90;;;;;;5016514;28;20198;-74
2022/01/26 01:35:59;;;;;;;54.80;33.03;;;1.60;99.90;;;;;;5014844;28;20194;-75
2022/01/26 01:38:28;;;;;;;53.58;32.92;;;1.50;99.90;;;;;;5020560;28;20222;-74
2022/01/26 01:40:55;;;;;;;62.72;32.20;;;1.50;99.90;;;;;;5020816;28;20329;-73
2022/01/26 01:43:24;;;;;;;50.78;30.42;;;1.40;99.90;;;;;;5022406;28;20226;-74
2022/01/26 01:45:55;;;;;;;57.28;27.40;;;1.30;99.90;;;;;;5019917;28;20248;-73
2022/01/26 01:48:27;;;;;;;54.20;29.45;;;1.30;99.90;;;;;;5027020;28;20218;-72
2022/01/26 01:50:58;;;;;;;38.58;27.13;;;1.20;99.90;;;;;;5029183;28;20200;-73
2022/01/26 01:53:32;;;;;;;40.03;25.80;;;1.10;99.90;;;;;;5027502;28;20197;-73
2022/01/26 01:56:01;;;;;;;39.20;25.65;;;1.00;99.90;;;;;;5021503;28;20209;-72
2022/01/26 01:58:28;;;;;;;39.03;26.58;;;0.90;99.90;;;;;;5028531;28;20218;-73
2022/01/26 02:00:57;;;;;;;38.45;25.25;;;0.90;99.90;;;;;;5027208;28;20261;-72
2022/01/26 02:03:24;;;;;;;40.95;25.35;;;0.90;99.90;;;;;;5023526;28;20234;-72
2022/01/26 02:05:52;;;;;;;39.63;25.20;;;1.00;99.90;;;;;;5024453;28;20292;-73
2022/01/26 02:08:19;;;;;;;59.58;24.63;;;1.00;99.90;;;;;;5027090;28;20296;-72
2022/01/26 02:10:47;;;;;;;48.08;25.63;;;0.90;99.90;;;;;;5025287;28;20641;-72
2022/01/26 02:13:20;;;;;;;48.67;24.70;;;0.90;99.90;;;;;;5026186;28;20229;-72
2022/01/26 02:15:53;;;;;;;38.55;23.80;;;0.70;99.90;;;;;;5025128;28;20213;-72
2022/01/26 02:18:44;;;;;;;41.63;24.67;;;0.60;99.90;;;;;;5027170;28;20217;-73
2022/01/26 02:21:34;;;;;;;54.00;26.45;;;0.70;99.90;;;;;;5025006;28;20194;-72
2022/01/26 02:49:39;;;;;;;42.00;23.55;;;0.50;99.90;;;;;;5020585;28;20205;-72
2022/01/26 02:52:17;;;;;;;48.40;24.77;;;0.60;99.90;;;;;;5024581;28;20197;-73
2022/01/26 02:55:06;;;;;;;49.30;25.02;;;0.70;99.90;;;;;;5023686;28;20261;-72
2022/01/26 02:57:45;;;;;;;46.17;24.13;;;0.60;99.90;;;;;;5020248;28;20228;-72
2022/01/26 03:00:19;;;;;;;47.42;26.38;;;0.60;99.90;;;;;;5024466;28;20205;-72
2022/01/26 03:02:52;;;;;;;44.72;25.00;;;0.60;99.90;;;;;;5021234;28;20225;-72
2022/01/26 03:05:22;;;;;;;47.22;24.73;;;0.70;99.90;;;;;;5020641;28;20198;-73
2022/01/26 03:07:54;;;;;;;48.08;25.73;;;0.70;99.90;;;;;;5022830;28;20218;-72
2022/01/26 03:10:30;;;;;;;49.47;25.00;;;0.80;99.90;;;;;;5024246;28;20208;-72
2022/01/26 03:13:01;;;;;;;48.45;26.00;;;0.80;99.90;;;;;;5020767;28;20198;-72
2022/01/26 03:15:33;;;;;;;48.53;24.55;;;0.80;99.90;;;;;;5018257;28;20206;-73
2022/01/26 03:20:43;;;;;;;50.83;25.17;;;0.80;99.90;;;;;;4997116;28;21352;-73
2022/01/26 03:28:45;;;;;;;49.90;26.95;;;0.90;99.90;;;;;;5023188;28;20340;-73
2022/01/26 03:34:02;;;;;;;48.58;25.67;;;1.00;99.90;;;;;;5021530;28;20202;-73
2022/01/26 03:36:32;;;;;;;46.88;24.92;;;1.00;99.90;;;;;;5017620;28;20711;-73
2022/01/26 03:39:06;;;;;;;46.30;26.77;;;1.10;99.90;;;;;;5013548;28;20284;-73
2022/01/26 03:41:40;;;;;;;49.63;24.65;;;1.10;99.90;;;;;;5017326;28;20236;-73
2022/01/26 03:44:08;;;;;;;50.95;25.77;;;1.00;99.90;;;;;;5018238;28;20205;-74
2022/01/26 03:46:35;;;;;;;47.38;26.48;;;1.10;99.90;;;;;;5025094;28;20224;-74
2022/01/26 03:49:04;;;;;;;49.78;27.85;;;1.00;99.90;;;;;;5025708;28;20194;-73
2022/01/26 03:51:31;;;;;;;45.00;23.88;;;1.00;99.90;;;;;;5025964;28;20320;-73
2022/01/26 03:53:58;;;;;;;46.35;26.02;;;1.00;99.90;;;;;;5024645;28;20685;-72
2022/01/26 03:56:25;;;;;;;49.75;26.13;;;0.90;99.90;;;;;;5028089;28;20241;-73
2022/01/26 03:58:53;;;;;;;40.20;22.70;;;0.90;99.90;;;;;;5030773;28;20285;-73
2022/01/26 04:01:20;;;;;;;45.15;24.40;;;0.90;99.90;;;;;;5023772;28;20197;-75
2022/01/26 04:03:48;;;;;;;45.63;24.92;;;0.90;99.90;;;;;;5021677;28;20314;-73
2022/01/26 04:06:15;;;;;;;48.42;25.40;;;0.90;99.90;;;;;;5025661;28;20224;-73
2022/01/26 04:08:44;;;;;;;51.38;27.30;;;0.90;99.90;;;;;;5030938;28;20569;-72
2022/01/26 04:11:29;;;;;;;55.80;25.00;;;1.00;99.90;;;;;;5028137;28;20711;-72
2022/01/26 04:13:58;;;;;;;46.90;23.95;;;1.00;99.90;;;;;;5025710;28;20653;-73
2022/01/26 04:16:25;;;;;;;50.53;26.30;;;0.90;99.90;;;;;;5029185;28;20217;-73
2022/01/26 04:18:54;;;;;;;50.75;24.85;;;0.90;99.90;;;;;;5027388;28;20190;-72
2022/01/26 04:21:29;;;;;;;49.85;25.27;;;1.00;99.90;;;;;;5028446;28;20289;-73
2022/01/26 04:24:01;;;;;;;42.13;22.92;;;1.10;99.90;;;;;;5022235;28;20311;-73
2022/01/26 04:26:33;;;;;;;49.03;24.98;;;1.10;99.90;;;;;;5022085;28;20214;-73
2022/01/26 04:29:05;;;;;;;48.05;26.10;;;1.20;99.90;;;;;;5021662;28;20248;-74
2022/01/26 04:31:32;;;;;;;47.78;25.10;;;1.20;99.90;;;;;;5023139;28;20278;-73
2022/01/26 04:34:00;;;;;;;48.95;26.70;;;1.30;99.90;;;;;;5026855;28;20740;-72
2022/01/26 04:36:32;;;;;;;46.95;24.92;;;1.30;99.90;;;;;;5029108;28;20218;-73
2022/01/26 04:39:04;;;;;;;44.17;24.42;;;1.30;99.90;;;;;;5021581;28;20292;-74
2022/01/26 04:41:36;;;;;;;47.50;25.63;;;1.40;99.90;;;;;;5022146;28;20213;-73
2022/01/26 04:44:10;;;;;;;45.15;24.00;;;1.50;99.90;;;;;;5023668;28;20221;-73
2022/01/26 04:46:37;;;;;;;45.00;25.88;;;1.40;99.90;;;;;;5023915;28;20311;-73
2022/01/26 04:49:04;;;;;;;44.72;25.50;;;1.40;99.90;;;;;;5024731;28;21974;-73
2022/01/26 04:51:31;;;;;;;46.10;25.67;;;1.40;99.90;;;;;;5022156;28;20225;-73
2022/01/26 04:53:58;;;;;;;44.25;24.23;;;1.40;99.90;;;;;;5022929;28;20210;-73
2022/01/26 04:56:25;;;;;;;49.42;27.15;;;1.50;99.90;;;;;;5021614;28;20312;-72
2022/01/26 04:58:52;;;;;;;43.15;25.30;;;1.50;99.90;;;;;;5026825;28;20202;-73
2022/01/26 05:01:20;;;;;;;43.65;25.02;;;1.50;99.90;;;;;;5021131;28;20201;-73
2022/01/26 05:03:47;;;;;;;47.40;24.83;;;1.50;99.90;;;;;;5022596;28;20233;-73
2022/01/26 05:06:14;;;;;;;48.60;25.30;;;1.40;99.90;;;;;;5021737;28;20320;-73
2022/01/26 05:08:41;;;;;;;48.15;27.20;;;1.40;99.90;;;;;;5022711;28;20206;-74
2022/01/26 05:11:12;;;;;;;48.15;25.15;;;1.30;99.90;;;;;;5021710;28;20669;-72
2022/01/26 05:13:39;;;;;;;45.40;25.60;;;1.30;99.90;;;;;;5021667;28;20190;-76
2022/01/26 05:16:08;;;;;;;50.22;25.65;;;1.30;99.90;;;;;;5022376;28;20602;-74
2022/01/26 05:18:37;;;;;;;49.67;26.15;;;1.30;99.90;;;;;;5023620;28;20239;-75
2022/01/26 05:21:04;;;;;;;48.50;25.75;;;1.40;99.90;;;;;;5026583;28;20202;-74
2022/01/26 05:23:32;;;;;;;49.45;25.88;;;1.40;99.90;;;;;;5029675;28;20229;-73
2022/01/26 05:25:59;;;;;;;50.22;27.17;;;1.40;99.90;;;;;;5027457;28;20300;-74
2022/01/26 05:28:26;;;;;;;46.90;25.90;;;1.40;99.90;;;;;;5028047;28;20222;-74
2022/01/26 05:30:52;;;;;;;53.55;26.67;;;1.30;99.90;;;;;;5031505;28;20221;-73
2022/01/26 05:33:23;;;;;;;52.67;25.40;;;1.10;99.90;;;;;;5026593;28;20202;-74
2022/01/26 05:35:52;;;;;;;57.78;28.30;;;1.00;99.90;;;;;;5026994;28;20591;-73
2022/01/26 05:38:19;;;;;;;60.63;28.23;;;0.90;99.90;;;;;;5023327;28;20204;-73
2022/01/26 05:40:46;;;;;;;61.17;28.17;;;0.80;99.90;;;;;;5020831;28;20653;-73
2022/01/26 05:43:15;;;;;;;66.43;29.63;;;0.70;99.90;;;;;;5007233;28;20239;-75
2022/01/26 05:45:43;;;;;;;59.70;28.15;;;0.60;99.90;;;;;;5017265;28;20951;-79
2022/01/26 05:48:12;;;;;;;59.53;27.80;;;0.60;99.90;;;;;;5015324;28;20206;-78
2022/01/26 05:50:49;;;;;;;58.33;28.63;;;0.50;99.90;;;;;;5034198;28;20193;-82
2022/01/26 05:53:21;;;;;;;56.63;29.15;;;0.50;99.90;;;;;;5031095;28;20208;-81
2022/01/26 05:55:49;;;;;;;60.45;29.88;;;0.50;99.90;;;;;;5021502;28;20279;-80
2022/01/26 05:58:16;;;;;;;66.93;30.83;;;0.50;99.90;;;;;;5026110;28;20224;-81
2022/01/26 06:00:44;;;;;;;61.88;29.60;;;0.60;99.90;;;;;;5026453;28;20728;-81
2022/01/26 06:03:12;;;;;;;60.85;26.38;;;0.60;99.90;;;;;;5027383;28;20213;-80
2022/01/26 06:05:39;;;;;;;67.15;28.95;;;0.50;99.90;;;;;;5025178;28;20198;-81
2022/01/26 06:08:30;;;;;;;63.80;28.95;;;0.50;99.90;;;;;;5028995;28;20201;-80
2022/01/26 06:10:59;;;;;;;68.85;30.10;;;0.50;99.90;;;;;;5028698;28;20200;-81
2022/01/26 06:13:26;;;;;;;54.92;27.10;;;0.50;99.90;;;;;;5028728;28;20247;-81
2022/01/26 06:15:54;;;;;;;65.57;28.50;;;0.50;99.90;;;;;;5027480;28;20221;-81
2022/01/26 06:18:21;;;;;;;64.93;30.27;;;0.40;99.90;;;;;;5031493;28;20198;-80
2022/01/26 06:20:49;;;;;;;63.72;29.00;;;0.40;99.90;;;;;;5034355;28;20194;-78
2022/01/26 06:23:16;;;;;;;55.20;27.10;;;0.50;99.90;;;;;;5040473;28;20244;-76
2022/01/26 06:25:45;;;;;;;77.88;29.45;;;0.60;99.90;;;;;;5047835;28;20237;-78
2022/01/26 06:28:14;;;;;;;59.05;26.45;;;0.70;99.90;;;;;;5046857;28;20230;-79
2022/01/26 06:30:46;;;;;;;66.15;31.70;;;0.50;99.90;;;;;;5049099;28;20194;-79
2022/01/26 06:33:14;;;;;;;53.30;27.90;;;0.40;99.90;;;;;;5053121;28;20300;-80
2022/01/26 06:35:41;;;;;;;59.55;29.15;;;0.50;99.90;;;;;;5050337;28;20240;-81
2022/01/26 06:38:09;;;;;;;61.83;30.75;;;0.60;99.90;;;;;;5051266;28;20196;-80
2022/01/26 06:40:36;;;;;;;60.13;27.92;;;0.50;99.90;;;;;;5045731;28;20224;-80
2022/01/26 06:43:09;;;;;;;61.42;29.80;;;0.50;99.90;;;;;;5038888;28;20230;-81
2022/01/26 06:45:42;;;;;;;64.43;31.15;;;0.50;99.90;;;;;;5026906;28;20258;-80
2022/01/26 06:48:40;;;;;;;71.30;32.42;;;0.50;99.90;;;;;;5031899;28;20622;-80
2022/01/26 06:51:07;;;;;;;63.35;29.83;;;0.40;99.90;;;;;;5024044;28;20198;-80
2022/01/26 06:53:33;;;;;;;64.55;31.20;;;0.40;99.90;;;;;;5026167;28;20220;-80
2022/01/26 06:56:00;;;;;;;66.72;30.90;;;0.30;99.90;;;;;;5021933;28;20553;-80
2022/01/26 06:58:29;;;;;;;70.82;28.27;;;0.20;99.90;;;;;;5026801;28;20292;-81
2022/01/26 07:00:57;;;;;;;70.53;30.33;;;0.20;99.90;;;;;;5022752;28;20226;-81
2022/01/26 07:03:24;;;;;;;75.07;29.63;;;0.20;99.90;;;;;;5030583;28;20240;-79
2022/01/26 07:05:51;;;;;;;73.22;30.42;;;0.30;99.90;;;;;;5027149;28;20351;-79
2022/01/26 07:08:18;;;;;;;68.07;30.70;;;0.30;99.90;;;;;;5028492;28;20207;-79
2022/01/26 07:10:47;;;;;;;80.32;30.70;;;0.30;99.90;;;;;;5028794;28;20198;-73
2022/01/26 07:13:15;;;;;;;62.70;29.88;;;0.30;99.90;;;;;;5025112;28;20235;-73
2022/01/26 07:21:27;;;;;;;64.60;28.83;;;0.50;99.90;;;;;;5023576;28;20715;-73
2022/01/26 07:23:55;;;;;;;63.78;30.15;;;0.60;99.90;;;;;;5030873;28;20222;-75
2022/01/26 07:26:25;;;;;;;62.88;31.33;;;0.60;99.90;;;;;;5029399;28;20224;-75
2022/01/26 07:28:51;;;;;;;60.88;29.65;;;0.70;99.90;;;;;;5024163;28;20194;-75
2022/01/26 07:31:20;;;;;;;59.45;31.25;;;0.80;99.90;;;;;;5030631;28;20212;-75
2022/01/26 07:33:53;;;;;;;52.47;28.60;;;0.80;99.90;;;;;;5027740;28;20225;-75
2022/01/26 07:36:20;;;;;;;50.00;27.35;;;0.80;99.90;;;;;;5029092;28;20221;-75
2022/01/26 07:38:49;;;;;;;57.03;28.10;;;0.80;99.90;;;;;;5026543;28;20209;-75
2022/01/26 07:41:16;;;;;;;51.50;29.35;;;0.80;99.90;;;;;;5025419;28;20202;-75
2022/01/26 07:43:43;;;;;;;55.78;28.90;;;0.80;99.90;;;;;;5024861;28;20304;-75
2022/01/26 07:46:10;;;;;;;49.55;26.88;;;0.80;99.90;;;;;;5028345;28;20728;-75
2022/01/26 07:48:39;;;;;;;56.72;27.67;;;0.90;99.90;;;;;;5024938;28;20202;-75
2022/01/26 07:51:06;;;;;;;54.78;27.67;;;0.80;99.90;;;;;;5027650;28;20208;-75
2022/01/26 07:53:33;;;;;;;57.63;28.98;;;0.90;99.90;;;;;;5026709;28;20311;-75
2022/01/26 07:56:00;;;;;;;65.65;28.23;;;0.90;99.90;;;;;;5029409;28;20217;-75
2022/01/26 07:58:28;;;;;;;54.33;29.92;;;0.90;99.90;;;;;;5027308;28;20198;-75
2022/01/26 08:00:54;;;;;;;54.25;28.45;;;0.80;99.90;;;;;;5027072;28;20301;-75
2022/01/26 08:03:21;;;;;;;58.35;28.25;;;0.80;99.90;;;;;;5025511;28;20312;-75
2022/01/26 08:05:50;;;;;;;54.40;28.80;;;0.80;99.90;;;;;;5032442;28;20217;-75
2022/01/26 08:08:17;;;;;;;48.75;26.20;;;0.70;99.90;;;;;;5026225;28;20225;-73
2022/01/26 08:10:48;;;;;;;48.60;26.23;;;0.70;99.90;;;;;;5025284;28;20194;-73
2022/01/26 08:13:16;;;;;;;49.78;27.08;;;0.70;99.90;;;;;;5019924;28;20202;-73
2022/01/26 08:15:42;;;;;;;51.42;28.83;;;0.80;99.90;;;;;;5022728;28;20221;-72
2022/01/26 08:18:09;;;;;;;53.67;28.50;;;0.90;99.90;;;;;;5027585;28;20763;-73
2022/01/26 08:20:36;;;;;;;49.90;25.60;;;1.00;99.90;;;;;;5026359;28;20198;-71
2022/01/26 08:23:05;;;;;;;45.47;24.05;;;1.10;99.90;;;;;;5027924;28;20197;-72
2022/01/26 08:25:31;;;;;;;54.45;27.17;;;1.20;99.90;;;;;;5025458;28;20255;-73
2022/01/26 08:28:01;;;;;;;44.28;24.77;;;1.30;99.90;;;;;;5027766;28;20196;-75
2022/01/26 08:30:28;;;;;;;52.97;25.75;;;1.30;99.90;;;;;;5025476;28;20208;-75
2022/01/26 08:32:55;;;;;;;47.83;26.42;;;1.30;99.90;;;;;;5025487;28;20280;-74
2022/01/26 08:35:22;;;;;;;41.35;25.10;;;1.40;99.90;;;;;;5027641;28;20225;-75
2022/01/26 08:37:49;;;;;;;45.83;25.27;;;1.40;99.90;;;;;;5028265;28;20198;-75
2022/01/26 08:40:18;;;;;;;47.75;25.88;;;1.40;99.90;;;;;;5020882;28;20295;-75
2022/01/26 08:42:45;;;;;;;47.67;26.13;;;1.20;99.90;;;;;;5023103;28;20210;-75
2022/01/26 08:45:12;;;;;;;49.88;28.27;;;1.20;99.90;;;;;;5025683;28;20234;-75
2022/01/26 08:47:39;;;;;;;42.20;24.67;;;1.20;99.90;;;;;;5028742;28;20234;-75
2022/01/26 08:50:07;;;;;;;48.25;27.45;;;1.20;99.90;;;;;;5023640;28;20198;-75
2022/01/26 08:52:34;;;;;;;45.80;25.48;;;1.10;99.90;;;;;;5029436;28;20201;-75
2022/01/26 08:55:02;;;;;;;41.38;22.65;;;1.10;99.90;;;;;;5022686;28;20221;-75
2022/01/26 08:57:30;;;;;;;36.17;22.15;;;1.10;99.90;;;;;;5027038;28;20202;-75
2022/01/26 08:59:58;;;;;;;37.55;22.10;;;1.10;99.90;;;;;;5029141;28;20198;-75
2022/01/26 09:02:26;;;;;;;39.40;21.30;;;1.00;99.90;;;;;;5029299;28;20736;-74
2022/01/26 09:04:53;;;;;;;34.47;19.83;;;1.00;99.90;;;;;;5031038;28;20221;-74
2022/01/26 09:07:20;;;;;;;42.40;22.52;;;1.00;99.90;;;;;;5027577;28;21551;-75
2022/01/26 09:09:48;;;;;;;36.90;20.92;;;1.10;99.90;;;;;;5029677;28;20222;-75
2022/01/26 09:12:17;;;;;;;35.78;19.48;;;1.10;99.90;;;;;;5025171;28;20293;-75
2022/01/26 09:14:47;;;;;;;32.92;18.95;;;1.20;99.90;;;;;;5027583;28;20197;-74
2022/01/26 09:17:15;;;;;;;36.40;20.23;;;1.10;99.90;;;;;;5029091;28;20221;-73
2022/01/26 09:19:44;;;;;;;37.20;23.08;;;1.10;99.90;;;;;;5030840;28;20611;-73
2022/01/26 09:22:13;;;;;;;35.53;20.65;;;1.10;99.90;;;;;;5030306;28;20205;-73
2022/01/26 09:24:41;;;;;;;42.88;23.65;;;1.20;99.90;;;;;;5029470;28;20313;-73
2022/01/26 09:27:12;;;;;;;40.95;23.42;;;1.10;99.90;;;;;;5024825;28;20573;-74
2022/01/26 09:29:39;;;;;;;33.60;22.40;;;1.20;99.90;;;;;;5030629;28;20205;-74
2022/01/26 09:32:08;;;;;;;38.75;22.73;;;1.20;99.90;;;;;;5023124;28;20206;-75
2022/01/26 09:34:37;;;;;;;36.45;21.88;;;1.30;99.90;;;;;;5029339;28;20841;-75
2022/01/26 09:37:06;;;;;;;34.70;22.55;;;1.20;99.90;;;;;;5030188;28;20280;-75
2022/01/26 09:39:33;;;;;;;40.40;22.60;;;1.10;99.90;;;;;;5033662;28;20194;-74
2022/01/26 09:42:02;;;;;;;39.15;22.67;;;1.10;99.90;;;;;;5033884;28;20556;-74
2022/01/26 09:44:31;;;;;;;35.85;21.73;;;1.00;99.90;;;;;;5028463;28;20225;-75
2022/01/26 09:46:57;;;;;;;38.67;24.65;;;0.90;99.90;;;;;;5025810;28;20217;-74
2022/01/26 09:49:31;;;;;;;40.55;23.27;;;0.80;99.90;;;;;;5021040;28;20190;-74
2022/01/26 09:52:02;;;;;;;43.33;25.23;;;0.70;99.90;;;;;;5015802;28;20201;-75
2022/01/26 09:54:31;;;;;;;43.63;25.38;;;0.70;99.90;;;;;;5022493;28;20198;-78
2022/01/26 09:57:02;;;;;;;43.00;23.90;;;0.80;99.90;;;;;;5030379;28;20204;-75
2022/01/26 09:59:30;;;;;;;43.10;23.73;;;0.90;99.90;;;;;;5029298;28;20216;-75
2022/01/26 10:01:58;;;;;;;44.35;25.52;;;0.90;99.90;;;;;;5029460;28;20308;-75
2022/01/26 10:04:29;;;;;;;46.28;24.55;;;0.90;99.90;;;;;;5018879;28;20268;-75
2022/01/26 10:07:01;;;;;;;46.53;25.77;;;0.90;99.90;;;;;;5028679;28;20213;-73
2022/01/26 10:09:55;;;;;;;43.33;24.80;;;0.70;99.90;;;;;;5023745;28;20202;-73
2022/01/26 10:15:29;;;;;;;47.58;26.98;;;0.70;99.90;;;;;;5035288;28;20613;-73
2022/01/26 10:18:09;;;;;;;43.55;24.38;;;0.70;99.90;;;;;;5028505;28;20243;-73
2022/01/26 10:20:46;;;;;;;38.78;22.38;;;0.70;99.90;;;;;;5026940;28;20664;-72
2022/01/26 10:23:17;;;;;;;43.60;23.98;;;0.50;99.90;;;;;;5019388;28;20202;-73
2022/01/26 10:25:47;;;;;;;40.08;24.50;;;0.50;99.90;;;;;;5025702;28;20330;-72
2022/01/26 10:28:17;;;;;;;40.60;23.02;;;0.70;99.90;;;;;;5028517;28;20202;-73
2022/01/26 10:30:47;;;;;;;35.33;22.55;;;0.70;99.90;;;;;;5021968;28;20201;-73
2022/01/26 10:33:17;;;;;;;34.47;21.70;;;1.00;99.90;;;;;;5028778;28;20689;-72
2022/01/26 10:35:46;;;;;;;31.20;19.45;;;1.20;99.90;;;;;;5022460;28;20236;-73
2022/01/26 10:38:15;;;;;;;30.88;21.05;;;1.30;99.90;;;;;;5026389;28;20643;-73
2022/01/26 10:40:42;;;;;;;33.83;21.55;;;1.40;99.90;;;;;;5024220;28;20201;-73
2022/01/26 10:43:12;;;;;;;32.13;20.50;;;1.50;99.90;;;;;;5030197;28;20292;-73
2022/01/26 10:45:53;;;;;;;32.13;19.80;;;1.60;99.90;;;;;;5023830;28;20248;-73
2022/01/26 10:48:28;;;;;;;34.30;21.63;;;1.60;99.90;;;;;;5026958;28;20610;-75
2022/01/26 10:54:10;;;;;;;37.75;22.73;;;1.80;99.90;;;;;;5027698;28;20193;-75
2022/01/26 10:56:37;;;;;;;35.85;22.83;;;1.70;99.90;;;;;;5026974;28;20244;-74
2022/01/26 10:59:04;;;;;;;41.88;23.40;;;1.60;99.90;;;;;;5031307;28;20208;-76
2022/01/26 11:01:31;;;;;;;38.78;21.52;;;1.50;99.90;;;;;;5029314;28;20205;-75
2022/01/26 11:03:58;;;;;;;35.15;21.85;;;1.40;99.90;;;;;;5029001;28;20236;-75
2022/01/26 11:06:27;;;;;;;36.72;22.13;;;1.20;99.90;;;;;;5029114;28;20288;-75
2022/01/26 11:09:00;;;;;;;34.75;20.50;;;1.10;99.90;;;;;;5028288;28;20212;-74
2022/01/26 11:11:27;;;;;;;41.05;23.35;;;1.10;99.90;;;;;;5031617;28;20201;-74
2022/01/26 11:13:57;;;;;;;35.13;22.75;;;1.10;99.90;;;;;;5027960;28;20676;-82
2022/01/26 11:16:25;;;;;;;37.40;22.00;;;1.10;99.90;;;;;;5033812;28;20897;-75
2022/01/26 11:18:53;;;;;;;35.47;21.70;;;1.10;99.90;;;;;;5026401;28;20198;-75
2022/01/26 11:21:35;;;;;;;36.47;20.35;;;1.00;99.90;;;;;;5033995;28;20645;-74
2022/01/26 11:24:08;;;;;;;34.10;21.95;;;0.90;99.90;;;;;;5031208;28;20940;-75
2022/01/26 11:26:38;;;;;;;35.03;21.83;;;0.90;99.90;;;;;;5028587;28;20201;-75
2022/01/26 11:29:18;;;;;;;35.47;21.80;;;1.00;99.90;;;;;;5019581;28;20194;-76
2022/01/26 11:31:46;;;;;;;35.15;20.60;;;1.10;99.90;;;;;;5019190;28;20276;-75
2022/01/26 11:34:16;;;;;;;36.88;21.15;;;1.10;99.90;;;;;;5027289;28;20305;-75
2022/01/26 11:36:44;;;;;;;32.20;20.73;;;1.10;99.90;;;;;;5021083;28;20288;-75
2022/01/26 11:42:18;;;;;;;34.50;20.58;;;1.20;99.90;;;;;;4988983;28;20232;-75
2022/01/26 11:45:05;;;;;;;30.30;19.58;;;1.20;99.90;;;;;;5017644;28;20222;-75
2022/01/26 11:47:34;;;;;;;32.47;21.15;;;1.20;99.90;;;;;;5025675;28;20204;-74
2022/01/26 11:50:08;;;;;;;31.23;19.90;;;1.10;99.90;;;;;;5024126;28;20198;-75
2022/01/26 11:52:39;;;;;;;34.10;20.35;;;1.10;99.90;;;;;;5024687;28;20209;-75
2022/01/26 11:55:20;;;;;;;33.75;19.40;;;1.00;99.90;;;;;;5021585;28;20218;-74
2022/01/26 11:57:51;;;;;;;34.80;20.98;;;1.10;99.90;;;;;;5025785;28;20206;-75
2022/01/26 12:00:36;;;;;;;31.20;19.40;;;1.10;99.90;;;;;;5026843;28;20202;-74
2022/01/26 12:03:08;;;;;;;33.20;19.55;;;1.10;99.90;;;;;;5026163;28;20233;-74
2022/01/26 12:05:45;;;;;;;36.55;21.42;;;1.00;99.90;;;;;;5027657;28;20308;-74
2022/01/26 12:08:14;;;;;;;31.92;19.17;;;0.90;99.90;;;;;;5028113;28;20285;-74
2022/01/26 12:10:44;;;;;;;34.53;20.27;;;0.80;99.90;;;;;;5025128;28;20649;-74
2022/01/26 12:13:16;;;;;;;35.00;20.67;;;0.80;99.90;;;;;;5026186;28;20204;-75
2022/01/26 12:15:48;;;;;;;38.10;23.17;;;0.90;99.90;;;;;;5030289;28;20317;-72
2022/01/26 12:18:24;;;;;;;31.77;19.90;;;0.90;99.90;;;;;;5029685;28;20202;-73
2022/01/26 12:32:39;;;;;;;32.28;19.60;;;1.00;99.90;;;;;;5029462;28;20683;-73
2022/01/26 12:35:13;;;;;;;35.55;21.80;;;0.80;99.90;;;;;;5022447;28;20327;-73
2022/01/26 12:37:52;;;;;;;34.10;20.00;;;0.70;99.90;;;;;;5027311;28;20198;-73
2022/01/26 12:43:13;;;;;;;35.83;22.42;;;0.80;99.90;;;;;;5027051;28;20263;-73
2022/01/26 12:45:40;;;;;;;37.90;22.15;;;0.70;99.90;;;;;;5028918;28;20226;-73
2022/01/26 12:48:09;;;;;;;38.97;23.50;;;0.60;99.90;;;;;;5031025;28;20267;-73
2022/01/26 12:50:39;;;;;;;40.95;23.33;;;0.70;99.90;;;;;;5027461;28;20206;-72
2022/01/26 12:53:07;;;;;;;41.17;23.95;;;0.80;99.90;;;;;;5028367;28;20198;-73
2022/01/26 12:55:37;;;;;;;36.47;24.17;;;0.90;99.90;;;;;;5028440;28;20213;-73
2022/01/26 12:58:05;;;;;;;43.15;23.70;;;1.00;99.90;;;;;;5017652;28;20200;-75
2022/01/26 13:00:42;;;;;;;38.25;22.27;;;1.00;99.90;;;;;;5016711;28;20194;-74
2022/01/26 13:03:18;;;;;;;41.65;21.63;;;1.10;99.90;;;;;;5026362;28;20217;-74
2022/01/26 13:05:45;;;;;;;42.53;21.90;;;1.10;99.90;;;;;;5026581;28;20237;-74
2022/01/26 13:08:12;;;;;;;38.75;21.08;;;1.10;99.90;;;;;;5028746;28;20607;-74
2022/01/26 13:10:41;;;;;;;38.38;19.50;;;1.10;99.90;;;;;;5029694;28;20527;-74
2022/01/26 13:13:13;;;;;;;37.17;20.23;;;1.00;99.90;;;;;;5026529;28;20276;-74
2022/01/26 13:15:47;;;;;;;29.40;19.30;;;1.00;99.90;;;;;;5027024;28;20224;-74
2022/01/26 13:21:32;;;;;;;34.47;19.63;;;0.80;99.90;;;;;;5012186;28;20198;-74
2022/01/26 13:24:09;;;;;;;35.67;20.70;;;0.80;99.90;;;;;;5028086;28;20214;-74
2022/01/26 13:26:46;;;;;;;33.97;19.48;;;0.80;99.90;;;;;;5021516;28;20229;-74
2022/01/26 13:29:26;;;;;;;38.33;22.60;;;0.70;99.90;;;;;;5028191;28;20752;-74
2022/01/26 13:37:39;;;;;;;31.63;19.38;;;0.60;99.90;;;;;;5019317;28;20198;-76
2022/01/26 13:40:21;;;;;;;35.97;21.23;;;0.50;99.90;;;;;;5024154;28;20217;-78
2022/01/26 13:46:01;;;;;;;35.65;20.13;;;0.50;99.90;;;;;;5020419;28;20600;-74
2022/01/26 13:51:18;;;;;;;31.67;18.60;;;0.50;99.90;;;;;;5027064;28;20941;-74
2022/01/26 13:53:52;;;;;;;35.35;19.75;;;0.50;99.90;;;;;;5018747;28;20578;-74
2022/01/26 13:56:32;;;;;;;33.80;21.15;;;0.50;99.90;;;;;;5023621;28;20251;-73
2022/01/26 13:59:11;;;;;;;34.58;19.17;;;0.50;99.90;;;;;;5026003;28;20264;-75
2022/01/26 14:01:42;;;;;;;33.97;20.08;;;0.60;99.90;;;;;;5025056;28;20272;-76
2022/01/26 14:04:09;;;;;;;28.48;18.88;;;0.50;99.90;;;;;;5025514;28;20580;-73
2022/01/26 14:06:36;;;;;;;27.67;17.45;;;0.50;99.90;;;;;;5026438;28;20309;-73
2022/01/26 14:09:03;;;;;;;31.70;18.45;;;0.50;99.90;;;;;;5022181;28;20280;-74
2022/01/26 14:11:30;;;;;;;34.40;19.50;;;0.40;99.90;;;;;;5018324;28;20194;-73
2022/01/26 14:13:58;;;;;;;36.28;20.33;;;0.50;99.90;;;;;;5022852;28;20214;-73
2022/01/26 14:16:32;;;;;;;38.13;21.85;;;0.50;99.90;;;;;;5025158;28;20197;-73
2022/01/26 14:19:12;;;;;;;32.72;22.10;;;0.40;99.90;;;;;;5025296;28;20201;-72
2022/01/26 14:22:05;;;;;;;39.92;20.55;;;0.50;99.90;;;;;;5022068;28;21386;-74
2022/01/26 14:24:39;;;;;;;33.60;19.35;;;0.50;99.90;;;;;;5016635;28;20263;-73
2022/01/26 14:27:07;;;;;;;31.83;19.50;;;0.40;99.90;;;;;;5020052;28;20217;-74
2022/01/26 14:29:42;;;;;;;37.30;20.27;;;0.40;99.90;;;;;;5027858;28;20205;-74